Marmul, Oman
Current Conditions -  °F | °C
As of 3:55 AM on Friday 19 Dec 2014 (Local Time) from KQTH Reporting Station
Few Clouds Few Clouds  
Wind Chill: 56°   Ceiling: Unl
Heat Index: 56°   Visibility: 6mi
Dew Point: 40°   Wind: 5mph
Humidity: 56%   Direction: 260°W
Pressure: 30.22"   Gusts: NA
Location:  18.14°N, 55.17°E
Report Text: KQTH 182355Z AUTO 26004KT 9999 FEW041 13/05 A3022 RMK AO2 SLP225 T01320047 56005 $
Loading
Personal Weather Stations






























Interactive Weather Map New forecast layout! Learn more

10-Day Weather Forecast

Advertisements
Track Severe Weather on mobile